Time;durP1;ratioP1;P1;durP2;ratioP2;P2;SDS_P1;SDS_P2;PMS_P1;PMS_P2;Temp;Humidity;BMP_temperature;BMP_pressure;BME280_temperature;BME280_humidity;BME280_pressure;Samples;Min_cycle;Max_cycle;Signal;HPM_P1;HPM_P2
2022/06/26 00:00:19;;;;;;;0.68;0.60;;;;;;;;;;4834183;29;20046;-77
2022/06/26 00:02:48;;;;;;;1.08;0.70;;;;;;;;;;4837276;29;20053;-76
2022/06/26 00:05:13;;;;;;;1.95;0.50;;;;;;;;;;4837054;29;20038;-76
2022/06/26 00:07:40;;;;;;;3.00;0.60;;;;;;;;;;4838900;29;20684;-76
2022/06/26 00:10:06;;;;;;;2.05;0.82;;;;;;;;;;4839021;29;20415;-75
2022/06/26 00:12:33;;;;;;;0.77;0.77;;;;;;;;;;4844982;29;20038;-77
2022/06/26 00:14:58;;;;;;;4.43;0.88;;;;;;;;;;4839228;29;20120;-75
2022/06/26 00:17:23;;;;;;;2.15;0.70;;;;;;;;;;4822749;29;20130;-77
2022/06/26 00:19:49;;;;;;;3.50;0.80;;;;;;;;;;4839041;29;20030;-79
2022/06/26 00:22:14;;;;;;;1.25;0.80;;;;;;;;;;4839721;29;20036;-78
2022/06/26 00:24:42;;;;;;;1.50;0.93;;;;;;;;;;4834382;29;20370;-78
2022/06/26 00:27:07;;;;;;;2.88;0.80;;;;;;;;;;4837635;29;20094;-77
2022/06/26 00:29:34;;;;;;;0.80;0.80;;;;;;;;;;4838448;29;20054;-76
2022/06/26 00:32:00;;;;;;;1.58;0.90;;;;;;;;;;4837349;29;20046;-77
2022/06/26 00:34:25;;;;;;;2.90;1.45;;;;;;;;;;4837533;29;20479;-77
2022/06/26 00:36:51;;;;;;;1.00;0.73;;;;;;;;;;4841099;29;20078;-76
2022/06/26 00:39:16;;;;;;;0.90;0.90;;;;;;;;;;4842255;29;20482;-77
2022/06/26 00:41:42;;;;;;;1.88;1.00;;;;;;;;;;4837803;29;20503;-77
2022/06/26 00:44:24;;;;;;;2.92;1.00;;;;;;;;;;4837460;29;20191;-76
2022/06/26 00:46:51;;;;;;;1.10;1.00;;;;;;;;;;4835432;29;20110;-77
2022/06/26 00:49:17;;;;;;;1.10;0.93;;;;;;;;;;4837487;29;20056;-76
2022/06/26 00:51:53;;;;;;;0.98;0.90;;;;;;;;;;4837731;29;20178;-78
2022/06/26 00:54:20;;;;;;;1.02;0.80;;;;;;;;;;4841331;29;20038;-78
2022/06/26 00:56:46;;;;;;;2.60;0.90;;;;;;;;;;4837714;29;20500;-77
2022/06/26 00:59:11;;;;;;;1.20;1.10;;;;;;;;;;4839431;29;20041;-77
2022/06/26 01:01:37;;;;;;;2.55;0.85;;;;;;;;;;4840630;29;20053;-78
2022/06/26 01:04:03;;;;;;;0.80;0.80;;;;;;;;;;4837651;29;20099;-78
2022/06/26 01:06:31;;;;;;;1.17;1.08;;;;;;;;;;4837444;29;20147;-76
2022/06/26 01:08:57;;;;;;;1.88;1.08;;;;;;;;;;4833940;29;20046;-77
2022/06/26 01:11:24;;;;;;;1.00;0.90;;;;;;;;;;4838902;29;20049;-77
2022/06/26 01:13:52;;;;;;;2.33;0.98;;;;;;;;;;4837117;29;20030;-76
2022/06/26 01:16:19;;;;;;;2.33;0.90;;;;;;;;;;4823895;29;20038;-77
2022/06/26 01:18:53;;;;;;;2.85;1.10;;;;;;;;;;4839117;29;20046;-78
2022/06/26 01:21:20;;;;;;;1.67;1.00;;;;;;;;;;4840712;29;20037;-77
2022/06/26 01:23:46;;;;;;;1.02;0.98;;;;;;;;;;4837550;29;20054;-79
2022/06/26 01:26:12;;;;;;;2.70;1.05;;;;;;;;;;4839620;29;20056;-77
2022/06/26 01:28:37;;;;;;;1.42;1.02;;;;;;;;;;4838388;29;20034;-77
2022/06/26 01:31:03;;;;;;;1.67;0.98;;;;;;;;;;4839906;29;20128;-77
2022/06/26 01:33:29;;;;;;;1.35;0.90;;;;;;;;;;4839709;29;20025;-79
2022/06/26 01:35:55;;;;;;;2.53;0.90;;;;;;;;;;4838765;29;20038;-78
2022/06/26 01:38:22;;;;;;;1.20;0.95;;;;;;;;;;4838239;29;20038;-76
2022/06/26 01:40:51;;;;;;;1.95;1.10;;;;;;;;;;4834836;29;20392;-77
2022/06/26 01:43:19;;;;;;;2.00;1.42;;;;;;;;;;4837785;29;20472;-79
2022/06/26 01:45:49;;;;;;;1.48;1.08;;;;;;;;;;4838521;29;20038;-76
2022/06/26 01:48:16;;;;;;;1.83;0.98;;;;;;;;;;4824382;29;20069;-78
2022/06/26 01:50:42;;;;;;;1.17;0.90;;;;;;;;;;4839006;29;20646;-77
2022/06/26 01:53:07;;;;;;;2.67;1.13;;;;;;;;;;4838761;29;20494;-77
2022/06/26 01:55:34;;;;;;;4.15;1.10;;;;;;;;;;4833642;29;20084;-77
2022/06/26 01:58:02;;;;;;;1.75;1.17;;;;;;;;;;4837834;29;20130;-78
2022/06/26 02:00:33;;;;;;;2.08;1.33;;;;;;;;;;4840400;29;20049;-78
2022/06/26 02:02:59;;;;;;;2.70;1.30;;;;;;;;;;4838004;29;20038;-78
2022/06/26 02:05:24;;;;;;;2.60;1.63;;;;;;;;;;4839637;29;20125;-76
2022/06/26 02:07:50;;;;;;;1.70;1.33;;;;;;;;;;4827807;29;20041;-76
2022/06/26 02:15:51;;;;;;;1.00;0.85;;;;;;;;;;4840580;29;20064;-77
2022/06/26 02:18:16;;;;;;;3.83;1.00;;;;;;;;;;4818583;29;20076;-77
2022/06/26 02:20:43;;;;;;;2.05;1.10;;;;;;;;;;4840620;29;20037;-76
2022/06/26 02:23:10;;;;;;;1.85;1.08;;;;;;;;;;4840799;29;20658;-77
2022/06/26 02:25:35;;;;;;;2.13;1.02;;;;;;;;;;4843007;29;20479;-78
2022/06/26 02:28:01;;;;;;;2.67;0.98;;;;;;;;;;4840303;29;20091;-79
2022/06/26 02:30:26;;;;;;;1.83;1.10;;;;;;;;;;4841534;29;20057;-77
2022/06/26 02:32:52;;;;;;;2.83;1.13;;;;;;;;;;4843014;29;20041;-78
2022/06/26 02:35:18;;;;;;;2.50;1.02;;;;;;;;;;4845022;29;20041;-78
2022/06/26 02:37:44;;;;;;;1.67;1.20;;;;;;;;;;4847595;29;20104;-77
2022/06/26 02:40:10;;;;;;;1.75;1.13;;;;;;;;;;4844394;29;20036;-76
2022/06/26 02:42:35;;;;;;;5.28;1.10;;;;;;;;;;4849503;29;20038;-77
2022/06/26 02:45:00;;;;;;;1.50;0.90;;;;;;;;;;4825571;29;20054;-76
2022/06/26 02:47:26;;;;;;;2.45;0.93;;;;;;;;;;4841048;29;20098;-77
2022/06/26 02:49:51;;;;;;;2.83;1.20;;;;;;;;;;4844646;29;20049;-77
2022/06/26 02:52:17;;;;;;;2.95;1.30;;;;;;;;;;4845317;29;20033;-77
2022/06/26 02:54:43;;;;;;;3.42;1.20;;;;;;;;;;4847955;29;20044;-76
2022/06/26 02:57:08;;;;;;;3.85;1.80;;;;;;;;;;4846359;29;20124;-76
2022/06/26 02:59:33;;;;;;;6.68;1.67;;;;;;;;;;4842695;29;20045;-75
2022/06/26 03:01:59;;;;;;;2.75;1.17;;;;;;;;;;4840572;29;20025;-76
2022/06/26 03:04:24;;;;;;;1.88;1.27;;;;;;;;;;4838448;29;20041;-76
2022/06/26 03:06:50;;;;;;;2.20;1.02;;;;;;;;;;4840648;29;20090;-75
2022/06/26 03:09:15;;;;;;;1.50;0.90;;;;;;;;;;4839742;29;20125;-76
2022/06/26 03:11:41;;;;;;;3.15;1.00;;;;;;;;;;4837817;29;20483;-76
2022/06/26 03:14:07;;;;;;;2.42;0.98;;;;;;;;;;4839675;29;20053;-76
2022/06/26 03:16:33;;;;;;;2.05;1.02;;;;;;;;;;4838665;29;20041;-76
2022/06/26 03:18:59;;;;;;;1.83;1.10;;;;;;;;;;4836758;29;20034;-76
2022/06/26 03:21:24;;;;;;;1.17;0.80;;;;;;;;;;4839395;29;20082;-76
2022/06/26 03:24:01;;;;;;;1.30;0.73;;;;;;;;;;4838192;29;20402;-75
2022/06/26 03:26:31;;;;;;;1.65;0.70;;;;;;;;;;4841314;29;20038;-76
2022/06/26 03:28:57;;;;;;;2.05;0.77;;;;;;;;;;4822278;29;20033;-77
2022/06/26 03:31:22;;;;;;;1.38;0.90;;;;;;;;;;4840365;29;20038;-77
2022/06/26 03:33:48;;;;;;;2.83;0.65;;;;;;;;;;4838651;29;20491;-76
2022/06/26 03:36:13;;;;;;;1.17;0.77;;;;;;;;;;4838407;29;20463;-76
2022/06/26 03:38:39;;;;;;;1.00;0.80;;;;;;;;;;4836893;29;20109;-77
2022/06/26 03:41:05;;;;;;;1.50;0.65;;;;;;;;;;4838471;29;20042;-75
2022/06/26 03:43:31;;;;;;;4.55;0.68;;;;;;;;;;4838577;29;20029;-76
2022/06/26 03:45:57;;;;;;;1.60;0.80;;;;;;;;;;4838634;29;20045;-76
2022/06/26 03:48:23;;;;;;;1.38;0.60;;;;;;;;;;4839456;29;20150;-76
2022/06/26 03:50:48;;;;;;;2.50;0.70;;;;;;;;;;4835706;29;20125;-76
2022/06/26 03:53:13;;;;;;;6.45;0.77;;;;;;;;;;4838338;29;20050;-76
2022/06/26 03:55:39;;;;;;;1.80;1.00;;;;;;;;;;4823177;29;20029;-76
2022/06/26 03:58:04;;;;;;;3.25;1.13;;;;;;;;;;4837740;29;20132;-75
2022/06/26 04:00:30;;;;;;;4.40;0.75;;;;;;;;;;4838897;29;20049;-76
2022/06/26 04:02:56;;;;;;;2.40;0.80;;;;;;;;;;4838102;29;20740;-76
2022/06/26 04:05:22;;;;;;;1.15;0.60;;;;;;;;;;4838865;29;20069;-76
2022/06/26 04:07:47;;;;;;;1.60;0.75;;;;;;;;;;4840099;29;20041;-76
2022/06/26 04:10:13;;;;;;;7.32;1.08;;;;;;;;;;4839397;29;20037;-76
2022/06/26 04:12:38;;;;;;;2.53;0.60;;;;;;;;;;4839113;29;20050;-75
2022/06/26 04:15:04;;;;;;;2.20;0.80;;;;;;;;;;4837347;29;20061;-76
2022/06/26 04:17:30;;;;;;;1.40;0.60;;;;;;;;;;4837490;29;20053;-76
2022/06/26 04:19:55;;;;;;;1.65;0.73;;;;;;;;;;4833736;29;20245;-76
2022/06/26 04:22:22;;;;;;;0.65;0.65;;;;;;;;;;4818958;29;20094;-76
2022/06/26 04:24:47;;;;;;;3.28;0.57;;;;;;;;;;4835691;29;20134;-77
2022/06/26 04:27:13;;;;;;;4.68;0.90;;;;;;;;;;4833626;29;20150;-77
2022/06/26 04:29:38;;;;;;;1.20;0.60;;;;;;;;;;4833405;29;20082;-76
2022/06/26 04:32:04;;;;;;;0.77;0.60;;;;;;;;;;4837710;29;20046;-76
2022/06/26 04:34:29;;;;;;;0.80;0.80;;;;;;;;;;4841784;29;20097;-76
2022/06/26 04:36:55;;;;;;;1.25;0.70;;;;;;;;;;4826056;29;20129;-75
2022/06/26 04:39:20;;;;;;;2.75;0.82;;;;;;;;;;4843487;29;20644;-76
2022/06/26 04:41:47;;;;;;;2.05;0.80;;;;;;;;;;4841329;29;20045;-76
2022/06/26 04:44:12;;;;;;;0.70;0.70;;;;;;;;;;4839133;29;20448;-76
2022/06/26 04:46:41;;;;;;;0.75;0.70;;;;;;;;;;4844774;29;20089;-76
2022/06/26 04:49:06;;;;;;;1.48;0.80;;;;;;;;;;4843544;29;20045;-76
2022/06/26 04:51:35;;;;;;;1.90;1.00;;;;;;;;;;4842268;29;20054;-75
2022/06/26 04:54:02;;;;;;;4.00;0.80;;;;;;;;;;4842466;29;20413;-76
2022/06/26 04:56:28;;;;;;;1.15;0.63;;;;;;;;;;4838754;29;21497;-77
2022/06/26 04:58:53;;;;;;;2.30;0.70;;;;;;;;;;4839361;29;20108;-76
2022/06/26 05:01:19;;;;;;;3.03;0.80;;;;;;;;;;4839094;29;20030;-76
2022/06/26 05:03:44;;;;;;;3.55;0.60;;;;;;;;;;4834907;29;20038;-75
2022/06/26 05:06:09;;;;;;;1.17;0.73;;;;;;;;;;4838410;29;20050;-76
2022/06/26 05:08:35;;;;;;;3.90;0.80;;;;;;;;;;4838697;29;20421;-75
2022/06/26 05:11:00;;;;;;;1.58;0.90;;;;;;;;;;4835509;29;20037;-74
2022/06/26 05:13:26;;;;;;;2.65;0.93;;;;;;;;;;4838114;29;20444;-76
2022/06/26 05:15:51;;;;;;;3.47;0.90;;;;;;;;;;4837464;29;20088;-76
2022/06/26 05:18:16;;;;;;;2.72;0.85;;;;;;;;;;4838084;29;20308;-76
2022/06/26 05:20:42;;;;;;;2.00;0.80;;;;;;;;;;4838706;29;20038;-77
2022/06/26 05:23:07;;;;;;;3.22;0.70;;;;;;;;;;4839193;29;20050;-78
2022/06/26 05:25:34;;;;;;;1.70;0.80;;;;;;;;;;4842419;29;20410;-76
2022/06/26 05:27:59;;;;;;;5.07;0.88;;;;;;;;;;4837095;29;20124;-75
2022/06/26 05:30:24;;;;;;;1.30;0.80;;;;;;;;;;4837081;29;20558;-76
2022/06/26 05:32:50;;;;;;;1.85;1.00;;;;;;;;;;4839239;29;20049;-76
2022/06/26 05:35:15;;;;;;;3.17;1.23;;;;;;;;;;4841255;29;20049;-76
2022/06/26 05:37:40;;;;;;;4.43;1.10;;;;;;;;;;4839695;29;20041;-77
2022/06/26 05:40:07;;;;;;;4.53;1.02;;;;;;;;;;4836222;29;20129;-77
2022/06/26 05:42:32;;;;;;;3.75;1.23;;;;;;;;;;4825618;29;20397;-76
2022/06/26 05:44:57;;;;;;;3.92;1.30;;;;;;;;;;4840195;29;20050;-77
2022/06/26 05:47:23;;;;;;;6.00;1.05;;;;;;;;;;4839420;29;20490;-77
2022/06/26 05:49:48;;;;;;;4.00;1.23;;;;;;;;;;4838364;29;20042;-77
2022/06/26 05:52:13;;;;;;;4.32;1.10;;;;;;;;;;4835855;29;21970;-76
2022/06/26 05:54:39;;;;;;;4.28;1.40;;;;;;;;;;4837848;29;20050;-76
2022/06/26 05:57:04;;;;;;;3.97;1.33;;;;;;;;;;4839530;29;20550;-76
2022/06/26 05:59:30;;;;;;;2.50;1.02;;;;;;;;;;4838885;29;20038;-76
2022/06/26 06:01:55;;;;;;;2.90;1.00;;;;;;;;;;4839353;29;20048;-76
2022/06/26 06:04:20;;;;;;;3.00;1.20;;;;;;;;;;4836242;29;20030;-75
2022/06/26 06:06:46;;;;;;;4.20;1.58;;;;;;;;;;4819764;29;20045;-76
2022/06/26 06:09:11;;;;;;;3.22;1.20;;;;;;;;;;4835875;29;20493;-75
2022/06/26 06:11:37;;;;;;;3.80;1.10;;;;;;;;;;4823819;29;20129;-75
2022/06/26 06:14:02;;;;;;;2.70;1.10;;;;;;;;;;4835786;29;20058;-75
2022/06/26 06:16:27;;;;;;;1.27;1.00;;;;;;;;;;4840776;29;20148;-77
2022/06/26 06:18:53;;;;;;;3.85;1.00;;;;;;;;;;4835462;29;20038;-77
2022/06/26 06:21:18;;;;;;;3.25;1.02;;;;;;;;;;4838055;29;20120;-75
2022/06/26 06:23:44;;;;;;;1.90;0.85;;;;;;;;;;4835160;29;20038;-76
2022/06/26 06:26:10;;;;;;;3.28;1.00;;;;;;;;;;4838120;29;20124;-76
2022/06/26 06:28:36;;;;;;;1.13;0.60;;;;;;;;;;4841030;29;20029;-75
2022/06/26 06:31:01;;;;;;;4.22;0.70;;;;;;;;;;4837294;29;20079;-76
2022/06/26 06:33:27;;;;;;;3.22;1.10;;;;;;;;;;4839747;29;20034;-76
2022/06/26 06:35:54;;;;;;;1.02;0.50;;;;;;;;;;4835955;29;20701;-76
2022/06/26 06:38:21;;;;;;;2.78;0.60;;;;;;;;;;4844249;29;20038;-75
2022/06/26 06:40:46;;;;;;;1.70;0.80;;;;;;;;;;4837923;29;20432;-76
2022/06/26 06:43:11;;;;;;;5.07;1.05;;;;;;;;;;4839769;29;20030;-74
2022/06/26 06:45:37;;;;;;;2.33;0.80;;;;;;;;;;4840396;29;20134;-75
2022/06/26 06:48:02;;;;;;;1.23;0.68;;;;;;;;;;4837128;29;20443;-75
2022/06/26 06:50:28;;;;;;;2.88;0.70;;;;;;;;;;4838023;29;20034;-75
2022/06/26 06:52:53;;;;;;;3.10;0.73;;;;;;;;;;4823750;29;20045;-75
2022/06/26 06:55:19;;;;;;;1.70;0.40;;;;;;;;;;4839622;29;20505;-75
2022/06/26 06:57:44;;;;;;;1.38;0.50;;;;;;;;;;4842595;29;20046;-75
2022/06/26 07:00:10;;;;;;;1.08;0.60;;;;;;;;;;4840962;29;20038;-76
2022/06/26 07:02:39;;;;;;;0.63;0.60;;;;;;;;;;4837558;29;20185;-76
2022/06/26 07:05:06;;;;;;;5.78;0.90;;;;;;;;;;4835756;29;20050;-76
2022/06/26 07:07:31;;;;;;;2.30;1.20;;;;;;;;;;4818318;29;20091;-76
2022/06/26 07:09:57;;;;;;;1.63;0.80;;;;;;;;;;4837931;29;20050;-75
2022/06/26 07:12:24;;;;;;;1.90;0.80;;;;;;;;;;4838849;29;20411;-75
2022/06/26 07:14:49;;;;;;;2.67;0.60;;;;;;;;;;4838340;29;20053;-76
2022/06/26 07:17:15;;;;;;;0.73;0.60;;;;;;;;;;4837306;29;20563;-76
2022/06/26 07:19:40;;;;;;;1.73;0.70;;;;;;;;;;4839017;29;20517;-75
2022/06/26 07:22:05;;;;;;;3.75;0.88;;;;;;;;;;4836883;29;20084;-76
2022/06/26 07:24:31;;;;;;;1.77;0.95;;;;;;;;;;4838032;29;20069;-76
2022/06/26 07:26:57;;;;;;;2.75;0.63;;;;;;;;;;4835303;29;20046;-76
2022/06/26 07:29:23;;;;;;;3.42;0.80;;;;;;;;;;4838063;29;20038;-75
2022/06/26 07:31:48;;;;;;;1.25;0.70;;;;;;;;;;4822205;29;20037;-75
2022/06/26 07:34:15;;;;;;;1.98;0.70;;;;;;;;;;4838483;29;20086;-75
2022/06/26 07:36:41;;;;;;;2.60;0.60;;;;;;;;;;4835629;29;20398;-75
2022/06/26 07:39:07;;;;;;;1.10;0.52;;;;;;;;;;4833414;29;21328;-75
2022/06/26 07:41:33;;;;;;;1.15;0.60;;;;;;;;;;4833893;29;20522;-76
2022/06/26 07:43:59;;;;;;;0.88;0.65;;;;;;;;;;4834142;29;20034;-76
2022/06/26 07:46:24;;;;;;;1.20;0.63;;;;;;;;;;4836266;29;20036;-76
2022/06/26 07:48:49;;;;;;;2.05;0.70;;;;;;;;;;4835208;29;20384;-75
2022/06/26 07:51:15;;;;;;;2.05;0.55;;;;;;;;;;4834855;29;20128;-75
2022/06/26 07:53:40;;;;;;;2.25;0.80;;;;;;;;;;4836488;29;20034;-75
2022/06/26 07:56:06;;;;;;;2.47;0.75;;;;;;;;;;4834329;29;20042;-76
2022/06/26 07:58:31;;;;;;;1.95;0.90;;;;;;;;;;4834173;29;20165;-75
2022/06/26 08:00:57;;;;;;;0.93;0.65;;;;;;;;;;4837608;29;20459;-75
2022/06/26 08:03:23;;;;;;;0.63;0.60;;;;;;;;;;4832996;29;20074;-75
2022/06/26 08:05:48;;;;;;;1.38;0.65;;;;;;;;;;4834053;29;20140;-76
2022/06/26 08:08:14;;;;;;;0.52;0.50;;;;;;;;;;4832926;29;20505;-76
2022/06/26 08:10:39;;;;;;;2.28;0.60;;;;;;;;;;4834885;29;20042;-77
2022/06/26 08:13:06;;;;;;;2.00;0.80;;;;;;;;;;4835784;29;20034;-76
2022/06/26 08:15:32;;;;;;;1.15;0.55;;;;;;;;;;4822245;29;20067;-75
2022/06/26 08:17:58;;;;;;;1.67;0.60;;;;;;;;;;4837827;29;20176;-76
2022/06/26 08:20:23;;;;;;;4.38;0.80;;;;;;;;;;4819276;29;20521;-76
2022/06/26 08:22:49;;;;;;;0.55;0.40;;;;;;;;;;4834014;29;20672;-76
2022/06/26 08:25:15;;;;;;;1.92;0.80;;;;;;;;;;4833437;29;20121;-76
2022/06/26 08:27:40;;;;;;;1.10;0.60;;;;;;;;;;4833600;29;20907;-76
2022/06/26 08:30:07;;;;;;;1.27;0.80;;;;;;;;;;4833593;29;20207;-75
2022/06/26 08:32:33;;;;;;;0.65;0.60;;;;;;;;;;4838355;29;20049;-76
2022/06/26 08:34:58;;;;;;;1.25;0.60;;;;;;;;;;4840349;29;20387;-75
2022/06/26 08:37:23;;;;;;;1.67;0.75;;;;;;;;;;4823086;29;20034;-76
2022/06/26 08:39:49;;;;;;;3.10;0.70;;;;;;;;;;4836776;29;20523;-75
2022/06/26 08:42:14;;;;;;;1.38;0.85;;;;;;;;;;4833896;29;20065;-76
2022/06/26 08:44:45;;;;;;;1.98;0.93;;;;;;;;;;4836236;29;20042;-75
2022/06/26 08:47:12;;;;;;;1.40;0.90;;;;;;;;;;4835846;29;20125;-76
2022/06/26 08:49:37;;;;;;;0.73;0.60;;;;;;;;;;4819083;29;20034;-74
2022/06/26 08:52:03;;;;;;;2.95;1.02;;;;;;;;;;4837639;29;20052;-75
2022/06/26 08:54:30;;;;;;;4.90;1.13;;;;;;;;;;4836357;29;20026;-76
2022/06/26 08:56:57;;;;;;;2.45;0.70;;;;;;;;;;4835601;29;20324;-75
2022/06/26 08:59:22;;;;;;;0.95;0.70;;;;;;;;;;4837125;29;20046;-76
2022/06/26 09:01:48;;;;;;;3.60;0.63;;;;;;;;;;4834438;29;20578;-76
2022/06/26 09:04:14;;;;;;;4.68;0.70;;;;;;;;;;4835351;29;20119;-75
2022/06/26 09:06:41;;;;;;;2.40;1.13;;;;;;;;;;4840933;29;20049;-75
2022/06/26 09:09:23;;;;;;;0.60;0.60;;;;;;;;;;4835802;29;20046;-76
2022/06/26 09:11:51;;;;;;;1.77;0.73;;;;;;;;;;4836991;29;20052;-74
2022/06/26 09:14:17;;;;;;;0.60;0.60;;;;;;;;;;4840480;29;20042;-76
2022/06/26 09:16:44;;;;;;;1.67;0.65;;;;;;;;;;4840073;29;20030;-75
2022/06/26 09:19:18;;;;;;;1.48;0.60;;;;;;;;;;4840647;29;20053;-75
2022/06/26 09:21:45;;;;;;;1.05;0.55;;;;;;;;;;4840038;29;20066;-75
2022/06/26 09:24:29;;;;;;;2.08;0.52;;;;;;;;;;4837770;29;20037;-75
2022/06/26 09:27:13;;;;;;;4.97;0.60;;;;;;;;;;4839568;29;20559;-76
2022/06/26 09:29:40;;;;;;;0.80;0.50;;;;;;;;;;4839556;29;20632;-76
2022/06/26 09:32:10;;;;;;;1.77;0.60;;;;;;;;;;4844448;29;20082;-75
2022/06/26 09:34:36;;;;;;;1.38;0.60;;;;;;;;;;4826678;29;20086;-76
2022/06/26 09:37:06;;;;;;;0.80;0.60;;;;;;;;;;4844040;29;20045;-74
2022/06/26 09:39:32;;;;;;;1.23;0.57;;;;;;;;;;4829998;29;20471;-75
2022/06/26 09:42:19;;;;;;;1.13;0.50;;;;;;;;;;4845054;29;20427;-77
2022/06/26 09:44:54;;;;;;;0.52;0.50;;;;;;;;;;4842105;29;20133;-76
2022/06/26 09:47:23;;;;;;;0.95;0.60;;;;;;;;;;4842646;29;20491;-76
2022/06/26 09:49:51;;;;;;;1.85;0.88;;;;;;;;;;4840873;29;20030;-76
2022/06/26 09:52:19;;;;;;;2.70;0.80;;;;;;;;;;4846202;29;20034;-77
2022/06/26 09:54:45;;;;;;;1.00;0.65;;;;;;;;;;4842131;29;20037;-77
2022/06/26 09:57:12;;;;;;;1.77;0.80;;;;;;;;;;4826966;29;20045;-77
2022/06/26 09:59:39;;;;;;;0.93;0.55;;;;;;;;;;4845991;29;20104;-75
2022/06/26 10:07:46;;;;;;;0.68;0.60;;;;;;;;;;4846857;29;20056;-76
2022/06/26 10:10:13;;;;;;;1.98;0.88;;;;;;;;;;4837136;29;20085;-76
2022/06/26 10:12:40;;;;;;;1.25;0.50;;;;;;;;;;4845578;29;20052;-76
2022/06/26 10:15:07;;;;;;;1.75;0.50;;;;;;;;;;4844796;29;20108;-76
2022/06/26 10:17:45;;;;;;;1.45;0.65;;;;;;;;;;4839073;29;20070;-75
2022/06/26 10:20:14;;;;;;;1.73;0.70;;;;;;;;;;4837846;29;20459;-75
2022/06/26 10:22:42;;;;;;;1.00;0.60;;;;;;;;;;4842964;29;20025;-76
2022/06/26 10:25:21;;;;;;;1.33;0.47;;;;;;;;;;4836941;29;20049;-75
2022/06/26 10:27:47;;;;;;;2.10;0.60;;;;;;;;;;4842064;29;20553;-75
2022/06/26 10:30:18;;;;;;;0.93;0.40;;;;;;;;;;4842993;29;20045;-75
2022/06/26 10:32:44;;;;;;;0.52;0.50;;;;;;;;;;4842931;29;20045;-75
2022/06/26 10:35:11;;;;;;;1.05;0.45;;;;;;;;;;4843455;29;20121;-75
2022/06/26 10:37:50;;;;;;;0.55;0.40;;;;;;;;;;4842285;29;20487;-75
2022/06/26 10:43:10;;;;;;;1.38;0.60;;;;;;;;;;4833862;29;20041;-75
2022/06/26 10:45:37;;;;;;;2.30;0.47;;;;;;;;;;4838490;29;20338;-75
2022/06/26 10:48:06;;;;;;;0.55;0.40;;;;;;;;;;4835662;29;20060;-75
2022/06/26 10:50:41;;;;;;;0.90;0.30;;;;;;;;;;4843054;29;20041;-75
2022/06/26 10:53:24;;;;;;;0.40;0.40;;;;;;;;;;4838680;29;20177;-75
2022/06/26 10:55:58;;;;;;;0.55;0.40;;;;;;;;;;4838431;29;20049;-75
2022/06/26 10:58:32;;;;;;;3.33;0.60;;;;;;;;;;4839951;29;20407;-75
2022/06/26 11:01:06;;;;;;;0.90;0.50;;;;;;;;;;4845324;29;20153;-76
2022/06/26 11:03:32;;;;;;;0.90;0.50;;;;;;;;;;4836629;29;20039;-75
2022/06/26 11:06:05;;;;;;;1.40;0.60;;;;;;;;;;4836218;29;21157;-76
2022/06/26 11:08:36;;;;;;;1.85;0.60;;;;;;;;;;4833646;29;20178;-75
2022/06/26 11:11:09;;;;;;;0.50;0.50;;;;;;;;;;4835596;29;20029;-75
2022/06/26 11:13:48;;;;;;;1.23;0.40;;;;;;;;;;4835928;29;20030;-75
2022/06/26 11:16:13;;;;;;;0.55;0.55;;;;;;;;;;4837449;29;20042;-76
2022/06/26 11:18:38;;;;;;;1.85;0.40;;;;;;;;;;4834815;29;20410;-75
2022/06/26 11:21:04;;;;;;;1.55;0.70;;;;;;;;;;4837823;29;20044;-75
2022/06/26 11:23:33;;;;;;;0.50;0.50;;;;;;;;;;4824338;29;20057;-75
2022/06/26 11:25:59;;;;;;;0.75;0.55;;;;;;;;;;4836912;29;20086;-74
2022/06/26 11:28:29;;;;;;;0.55;0.55;;;;;;;;;;4839977;29;20404;-75
2022/06/26 11:30:55;;;;;;;0.68;0.43;;;;;;;;;;4829344;29;20392;-74
2022/06/26 11:33:26;;;;;;;0.60;0.60;;;;;;;;;;4832376;29;20038;-73
2022/06/26 11:35:53;;;;;;;1.07;0.70;;;;;;;;;;4839785;29;20038;-75
2022/06/26 11:38:19;;;;;;;0.50;0.50;;;;;;;;;;4837988;29;20034;-75
2022/06/26 11:40:47;;;;;;;1.17;0.70;;;;;;;;;;4835242;29;20040;-75
2022/06/26 11:43:14;;;;;;;0.73;0.68;;;;;;;;;;4831814;29;20045;-74
2022/06/26 11:45:43;;;;;;;2.20;0.88;;;;;;;;;;4835407;29;20447;-75
2022/06/26 11:48:16;;;;;;;1.65;0.70;;;;;;;;;;4835412;29;20199;-74
2022/06/26 11:50:49;;;;;;;1.42;0.60;;;;;;;;;;4833004;29;20558;-75
2022/06/26 11:53:24;;;;;;;0.90;0.70;;;;;;;;;;4840428;29;20045;-76
2022/06/26 11:55:56;;;;;;;4.13;0.85;;;;;;;;;;4840469;29;20082;-76
2022/06/26 11:58:24;;;;;;;2.92;0.80;;;;;;;;;;4842965;29;20029;-76
2022/06/26 12:01:02;;;;;;;2.00;0.70;;;;;;;;;;4834570;29;20049;-76
2022/06/26 12:03:27;;;;;;;2.88;0.77;;;;;;;;;;4843735;29;20412;-75
2022/06/26 12:05:53;;;;;;;1.02;0.70;;;;;;;;;;4838545;29;20045;-75
2022/06/26 12:08:19;;;;;;;1.40;0.82;;;;;;;;;;4841550;29;20514;-75
2022/06/26 12:10:50;;;;;;;0.77;0.77;;;;;;;;;;4837665;29;20030;-75
2022/06/26 12:13:26;;;;;;;1.63;1.00;;;;;;;;;;4843742;29;20059;-75
2022/06/26 12:15:52;;;;;;;1.58;1.10;;;;;;;;;;4835321;29;20037;-75
2022/06/26 12:18:18;;;;;;;3.65;1.10;;;;;;;;;;4839958;29;20070;-74
2022/06/26 12:20:44;;;;;;;2.30;0.88;;;;;;;;;;4834205;29;20071;-75
2022/06/26 12:23:10;;;;;;;3.97;1.23;;;;;;;;;;4835122;29;20518;-74
2022/06/26 12:25:37;;;;;;;4.05;1.02;;;;;;;;;;4841294;29;20044;-74
2022/06/26 12:28:03;;;;;;;1.65;1.00;;;;;;;;;;4838161;29;20531;-75
2022/06/26 12:30:30;;;;;;;1.45;1.10;;;;;;;;;;4841442;29;20050;-75
2022/06/26 12:32:57;;;;;;;3.72;0.93;;;;;;;;;;4845627;29;20118;-75
2022/06/26 12:35:23;;;;;;;2.30;0.93;;;;;;;;;;4844257;29;20415;-74
2022/06/26 12:37:49;;;;;;;1.88;1.00;;;;;;;;;;4846710;29;20098;-75
2022/06/26 12:40:15;;;;;;;1.15;0.93;;;;;;;;;;4848943;29;20116;-75
2022/06/26 12:42:40;;;;;;;1.35;1.10;;;;;;;;;;4845382;29;20113;-75
2022/06/26 12:45:07;;;;;;;1.10;0.80;;;;;;;;;;4846432;29;20037;-75
2022/06/26 12:47:32;;;;;;;1.48;0.90;;;;;;;;;;4845377;29;20086;-75
2022/06/26 12:50:02;;;;;;;1.95;0.82;;;;;;;;;;4838741;29;20391;-75
2022/06/26 12:52:28;;;;;;;2.97;1.00;;;;;;;;;;4836074;29;20562;-75
2022/06/26 12:54:54;;;;;;;1.83;1.00;;;;;;;;;;4846351;29;20038;-74
2022/06/26 12:57:19;;;;;;;4.88;0.90;;;;;;;;;;4846419;29;20311;-73
2022/06/26 12:59:45;;;;;;;1.65;0.70;;;;;;;;;;4840617;29;20102;-75
2022/06/26 13:02:11;;;;;;;0.80;0.80;;;;;;;;;;4836446;29;20105;-75
2022/06/26 13:04:37;;;;;;;1.15;0.73;;;;;;;;;;4842276;29;20065;-73
2022/06/26 13:07:03;;;;;;;2.28;1.02;;;;;;;;;;4830516;29;20049;-75
2022/06/26 13:09:28;;;;;;;3.22;0.90;;;;;;;;;;4837765;29;20049;-75
2022/06/26 13:11:54;;;;;;;4.10;0.82;;;;;;;;;;4843585;29;20406;-75
2022/06/26 13:14:19;;;;;;;0.55;0.50;;;;;;;;;;4835632;29;20522;-74
2022/06/26 13:16:45;;;;;;;0.90;0.77;;;;;;;;;;4842658;29;20034;-74
2022/06/26 13:19:11;;;;;;;0.80;0.80;;;;;;;;;;4838291;29;20516;-75
2022/06/26 13:21:37;;;;;;;2.38;0.80;;;;;;;;;;4837298;29;20102;-75
2022/06/26 13:24:03;;;;;;;1.50;0.70;;;;;;;;;;4837712;29;20042;-76
2022/06/26 13:26:29;;;;;;;1.52;0.95;;;;;;;;;;4842041;29;20047;-75
2022/06/26 13:28:54;;;;;;;1.40;0.70;;;;;;;;;;4833631;29;20026;-75
2022/06/26 13:31:20;;;;;;;1.15;0.73;;;;;;;;;;4840508;29;20029;-74
2022/06/26 13:33:45;;;;;;;1.65;0.80;;;;;;;;;;4823481;29;20026;-74
2022/06/26 13:36:11;;;;;;;1.08;0.68;;;;;;;;;;4836752;29;20037;-74
2022/06/26 13:38:36;;;;;;;0.70;0.70;;;;;;;;;;4838642;29;20102;-74
2022/06/26 13:41:02;;;;;;;0.55;0.52;;;;;;;;;;4839961;29;20038;-75
2022/06/26 13:43:28;;;;;;;0.63;0.63;;;;;;;;;;4842901;29;20044;-75
2022/06/26 13:45:53;;;;;;;1.38;0.88;;;;;;;;;;4839290;29;20049;-74
2022/06/26 13:48:18;;;;;;;1.13;0.90;;;;;;;;;;4842436;29;20578;-74
2022/06/26 13:50:44;;;;;;;1.33;0.60;;;;;;;;;;4831859;29;20120;-75
2022/06/26 13:53:09;;;;;;;1.25;0.70;;;;;;;;;;4836191;29;20413;-72
2022/06/26 13:55:35;;;;;;;1.10;0.60;;;;;;;;;;4839858;29;20041;-74
2022/06/26 13:58:00;;;;;;;1.10;0.75;;;;;;;;;;4844279;29;20068;-75
2022/06/26 14:00:26;;;;;;;1.15;0.80;;;;;;;;;;4843362;29;20049;-73
2022/06/26 14:02:51;;;;;;;0.93;0.82;;;;;;;;;;4837839;29;20041;-75
2022/06/26 14:05:16;;;;;;;1.92;0.90;;;;;;;;;;4836598;29;20155;-75
2022/06/26 14:07:42;;;;;;;1.52;0.90;;;;;;;;;;4848938;29;20478;-75
2022/06/26 14:10:08;;;;;;;2.08;0.65;;;;;;;;;;4836938;29;20130;-75
2022/06/26 14:12:33;;;;;;;1.45;0.90;;;;;;;;;;4840950;29;20041;-74
2022/06/26 14:14:58;;;;;;;1.00;0.90;;;;;;;;;;4839035;29;20532;-75
2022/06/26 14:17:24;;;;;;;1.42;0.90;;;;;;;;;;4839033;29;20132;-74
2022/06/26 14:19:49;;;;;;;1.77;1.00;;;;;;;;;;4836401;29;20041;-75
2022/06/26 14:27:43;;;;;;;4.82;1.10;;;;;;;;;;4843288;29;20049;-74
2022/06/26 14:30:09;;;;;;;1.63;1.10;;;;;;;;;;4838335;29;20045;-74
2022/06/26 14:32:35;;;;;;;0.95;0.90;;;;;;;;;;4841443;29;20044;-74
2022/06/26 14:35:01;;;;;;;1.20;1.00;;;;;;;;;;4844584;29;20497;-74
2022/06/26 14:37:26;;;;;;;2.63;0.85;;;;;;;;;;4845282;29;20113;-73
2022/06/26 14:39:52;;;;;;;3.05;1.08;;;;;;;;;;4842838;29;20030;-74
2022/06/26 14:42:17;;;;;;;2.13;0.70;;;;;;;;;;4841351;29;20042;-74
2022/06/26 14:44:44;;;;;;;1.75;0.80;;;;;;;;;;4845943;29;20499;-74
2022/06/26 14:47:09;;;;;;;2.15;0.90;;;;;;;;;;4842558;29;20045;-73
2022/06/26 14:49:34;;;;;;;2.13;1.00;;;;;;;;;;4845449;29;20426;-75
2022/06/26 14:52:00;;;;;;;2.67;0.98;;;;;;;;;;4840883;29;20114;-73
2022/06/26 14:54:26;;;;;;;3.40;1.52;;;;;;;;;;4845878;29;20035;-73
2022/06/26 14:56:51;;;;;;;1.55;0.90;;;;;;;;;;4842376;29;20567;-73
2022/06/26 14:59:16;;;;;;;2.47;1.30;;;;;;;;;;4828515;29;20044;-74